Time;durP1;ratioP1;P1;durP2;ratioP2;P2;SDS_P1;SDS_P2;PMS_P1;PMS_P2;Temp;Humidity;BMP_temperature;BMP_pressure;BME280_temperature;BME280_humidity;BME280_pressure;Samples;Min_cycle;Max_cycle;Signal;HPM_P1;HPM_P2
2021/10/14 00:01:34;;;;;;;;;36.75;30.50;;;;;12.98;56.16;102540.66;5018847;28;45361;-79
2021/10/14 00:03:59;;;;;;;;;32.00;29.25;;;;;12.94;56.34;102542.16;5018807;28;45593;-79
2021/10/14 00:06:25;;;;;;;;;30.00;29.00;;;;;12.94;56.55;102543.88;5018242;28;46182;-78
2021/10/14 00:08:50;;;;;;;;;33.50;29.25;;;;;12.90;56.60;102550.59;5018203;28;45439;-81
2021/10/14 00:11:16;;;;;;;;;32.25;30.25;;;;;12.87;56.97;102539.06;5018362;28;45240;-83
2021/10/14 00:13:42;;;;;;;;;31.75;28.00;;;;;12.87;57.13;102547.78;5019016;28;45296;-83
2021/10/14 00:16:08;;;;;;;;;34.25;30.75;;;;;12.86;57.00;102548.59;5018087;28;46022;-79
2021/10/14 00:18:33;;;;;;;;;29.75;26.25;;;;;12.77;56.85;102538.50;5018920;28;45440;-77
2021/10/14 00:20:59;;;;;;;;;29.00;28.00;;;;;12.81;56.65;102552.56;5019060;28;45327;-78
2021/10/14 00:23:25;;;;;;;;;26.50;24.00;;;;;12.75;56.47;102547.88;5034028;28;45950;-77
2021/10/14 00:25:51;;;;;;;;;27.25;22.00;;;;;12.70;56.67;102545.00;5019628;28;46145;-78
2021/10/14 00:28:16;;;;;;;;;26.00;25.75;;;;;12.69;57.02;102550.09;5020194;28;45371;-82
2021/10/14 00:30:42;;;;;;;;;22.00;20.75;;;;;12.70;56.83;102547.59;5024813;28;45349;-81
2021/10/14 00:33:07;;;;;;;;;26.75;24.75;;;;;12.65;56.91;102538.63;5018627;28;45396;-83
2021/10/14 00:35:33;;;;;;;;;27.25;23.25;;;;;12.68;56.87;102553.50;5019994;28;46058;-80
2021/10/14 00:37:59;;;;;;;;;29.00;26.25;;;;;12.61;57.05;102546.13;5023407;28;45378;-81
2021/10/14 00:40:25;;;;;;;;;26.25;25.75;;;;;12.58;57.10;102541.59;5020644;28;45193;-79
2021/10/14 00:42:52;;;;;;;;;23.50;22.50;;;;;12.52;57.16;102539.53;5018821;28;45477;-78
2021/10/14 00:45:18;;;;;;;;;29.25;28.25;;;;;12.57;57.34;102545.03;5016863;28;46059;-78
2021/10/14 00:47:43;;;;;;;;;27.50;25.00;;;;;12.49;57.34;102531.53;5017403;28;45401;-77
2021/10/14 00:50:10;;;;;;;;;25.75;25.25;;;;;12.47;57.25;102533.13;5017197;28;45503;-77
2021/10/14 00:52:38;;;;;;;;;26.25;26.00;;;;;12.47;57.50;102548.72;5018292;28;45461;-77
2021/10/14 00:55:05;;;;;;;;;28.50;26.75;;;;;12.38;57.83;102533.41;5017979;28;45931;-77
2021/10/14 00:57:31;;;;;;;;;27.75;24.50;;;;;12.37;57.56;102542.00;5018067;28;45798;-80
2021/10/14 00:59:58;;;;;;;;;30.00;23.00;;;;;12.32;57.96;102534.72;5018583;28;45245;-77
2021/10/14 01:02:24;;;;;;;;;28.25;26.25;;;;;12.33;58.17;102532.25;5018276;28;45330;-79
2021/10/14 01:04:51;;;;;;;;;26.00;25.75;;;;;12.33;57.61;102533.91;5018198;28;46177;-82
2021/10/14 01:07:17;;;;;;;;;30.00;27.25;;;;;12.31;58.24;102532.94;5017945;28;45390;-77
2021/10/14 01:09:42;;;;;;;;;28.50;25.75;;;;;12.28;58.34;102530.13;5017268;28;45281;-77
2021/10/14 01:12:08;;;;;;;;;30.00;24.00;;;;;12.29;58.38;102531.94;5017359;28;45425;-76
2021/10/14 01:14:34;;;;;;;;;26.50;24.00;;;;;12.28;58.54;102533.63;5017510;28;45671;-77
2021/10/14 01:17:01;;;;;;;;;30.50;26.00;;;;;12.29;58.50;102532.81;5017071;28;45531;-77
2021/10/14 01:19:27;;;;;;;;;26.75;24.25;;;;;12.20;58.78;102519.25;5017055;28;45456;-77
2021/10/14 01:21:53;;;;;;;;;27.25;25.25;;;;;12.23;58.51;102525.53;5017606;28;45685;-77
2021/10/14 01:24:20;;;;;;;;;24.00;24.00;;;;;12.21;58.55;102523.63;5015599;28;47016;-78
2021/10/14 01:26:45;;;;;;;;;22.00;22.00;;;;;12.19;58.63;102525.22;5016097;28;45950;-76
2021/10/14 01:29:12;;;;;;;;;28.75;22.50;;;;;12.18;58.56;102528.63;5016903;28;45354;-77
2021/10/14 01:31:37;;;;;;;;;25.75;23.75;;;;;12.17;58.34;102527.75;5017710;28;45406;-78
2021/10/14 01:34:03;;;;;;;;;23.25;23.25;;;;;12.14;58.50;102517.13;5016132;28;46264;-79
2021/10/14 01:36:29;;;;;;;;;24.25;20.25;;;;;12.13;58.25;102517.94;5016889;28;45843;-79
2021/10/14 01:38:55;;;;;;;;;22.00;21.00;;;;;12.12;58.35;102515.25;5017149;28;45274;-80
2021/10/14 01:41:20;;;;;;;;;25.25;20.00;;;;;12.09;58.31;102510.75;5016686;28;45559;-77
2021/10/14 01:43:46;;;;;;;;;24.25;19.25;;;;;12.04;58.37;102499.16;5016584;28;46022;-78
2021/10/14 01:46:13;;;;;;;;;20.00;20.00;;;;;12.07;58.30;102517.53;5016265;28;45240;-78
2021/10/14 01:48:40;;;;;;;;;25.50;22.25;;;;;12.06;58.58;102516.63;5017553;28;45339;-87
2021/10/14 01:51:09;;;;;;;;;20.75;20.50;;;;;12.04;58.36;102518.22;5018251;28;45477;-84
2021/10/14 01:53:34;;;;;;;;;22.25;16.50;;;;;11.96;58.17;102498.59;5017399;28;47188;-84
2021/10/14 01:56:00;;;;;;;;;18.75;17.00;;;;;12.00;58.47;102503.25;5018035;28;45385;-78
2021/10/14 01:58:25;;;;;;;;;19.25;19.25;;;;;12.00;58.45;102503.25;5016687;28;45252;-77
2021/10/14 02:00:52;;;;;;;;;18.50;17.75;;;;;11.99;58.51;102504.06;5017447;28;45237;-77
2021/10/14 02:03:18;;;;;;;;;21.25;18.50;;;;;11.95;58.43;102502.00;5017474;28;46270;-77
2021/10/14 02:05:44;;;;;;;;;20.00;18.75;;;;;11.90;58.43;102501.69;5016866;28;45296;-78
2021/10/14 02:08:10;;;;;;;;;24.50;20.50;;;;;11.85;58.69;102504.78;5016585;28;45325;-78
2021/10/14 02:10:36;;;;;;;;;26.00;22.25;;;;;11.73;58.81;102489.31;5017613;28;45420;-78
2021/10/14 02:13:03;;;;;;;;;25.25;23.00;;;;;11.76;59.17;102495.59;5017294;28;46178;-78
2021/10/14 02:15:29;;;;;;;;;26.00;22.25;;;;;11.75;59.15;102496.38;5016362;28;45283;-78
2021/10/14 02:17:54;;;;;;;;;23.75;20.25;;;;;11.74;59.17;102498.88;5016557;28;45372;-77
2021/10/14 02:20:20;;;;;;;;;28.50;25.00;;;;;11.61;59.13;102466.00;5017131;28;45280;-84
2021/10/14 02:22:46;;;;;;;;;23.75;21.00;;;;;11.67;59.27;102476.81;5015965;28;46694;-85
2021/10/14 02:25:13;;;;;;;;;19.50;17.75;;;;;11.69;59.47;102482.09;5017487;28;45209;-87
2021/10/14 02:27:39;;;;;;;;;25.00;21.50;;;;;11.69;59.19;102482.09;5017943;28;45342;-86
2021/10/14 02:30:07;;;;;;;;;29.75;24.75;;;;;11.69;59.31;102493.41;5017079;28;45528;-77
2021/10/14 02:32:33;;;;;;;;;30.25;25.50;;;;;11.63;59.26;102486.88;5015540;28;46258;-77
2021/10/14 02:34:59;;;;;;;;;24.75;24.25;;;;;11.65;59.42;102493.09;5017012;28;45998;-79
2021/10/14 02:37:25;;;;;;;;;28.75;25.75;;;;;11.58;59.49;102491.75;5016003;28;45316;-82
2021/10/14 02:39:51;;;;;;;;;32.50;28.00;;;;;11.53;59.42;102488.88;5016507;28;45221;-77
2021/10/14 02:42:17;;;;;;;;;20.75;20.75;;;;;11.54;59.56;102493.25;5015774;28;45207;-81
2021/10/14 02:44:43;;;;;;;;;26.25;24.75;;;;;11.51;59.76;102500.81;5015829;28;45330;-78
2021/10/14 02:47:09;;;;;;;;;21.50;21.50;;;;;11.51;59.63;102490.44;5015849;28;45391;-78
2021/10/14 02:49:35;;;;;;;;;28.00;25.50;;;;;11.53;59.64;102495.72;5014828;28;45366;-78
2021/10/14 02:52:01;;;;;;;;;24.25;21.75;;;;;11.51;59.69;102490.44;5014914;28;47960;-77
2021/10/14 02:54:26;;;;;;;;;28.00;25.00;;;;;11.54;59.88;102487.16;5016061;28;45413;-78
2021/10/14 02:56:52;;;;;;;;;24.00;22.50;;;;;11.53;59.68;102487.94;5016736;28;45386;-78
2021/10/14 02:59:18;;;;;;;;;23.00;23.00;;;;;11.46;59.70;102482.34;5016157;28;45329;-78
2021/10/14 03:01:43;;;;;;;;;23.50;22.25;;;;;11.52;59.81;102496.53;5015795;28;45975;-77
2021/10/14 03:04:09;;;;;;;;;27.50;26.50;;;;;11.48;59.45;102491.94;5016027;28;45497;-78
2021/10/14 03:06:34;;;;;;;;;26.50;24.00;;;;;11.45;59.33;102490.00;5019126;28;45435;-78
2021/10/14 03:09:00;;;;;;;;;22.00;21.00;;;;;11.43;59.30;102489.03;5022812;28;45442;-87
2021/10/14 03:11:25;;;;;;;;;26.50;22.00;;;;;11.43;59.49;102489.91;5023857;28;45922;-84
2021/10/14 03:13:51;;;;;;;;;22.75;20.50;;;;;11.43;59.40;102489.03;5019606;28;45367;-79
2021/10/14 03:16:16;;;;;;;;;29.25;22.00;;;;;11.40;59.83;102487.09;5020239;28;45243;-79
2021/10/14 03:18:42;;;;;;;;;25.75;24.50;;;;;11.38;59.74;102480.94;5019707;28;45305;-77
2021/10/14 03:21:08;;;;;;;;;26.25;25.50;;;;;11.35;59.90;102477.22;5017670;28;45323;-77
2021/10/14 03:23:34;;;;;;;;;25.50;22.50;;;;;11.30;59.49;102463.94;5019094;28;46015;-78
2021/10/14 03:26:02;;;;;;;;;25.25;22.75;;;;;11.27;59.85;102468.94;5019582;28;45903;-78
2021/10/14 03:28:29;;;;;;;;;28.00;24.25;;;;;11.39;59.58;102487.00;5019185;28;45374;-78
2021/10/14 03:30:55;;;;;;;;;26.25;24.50;;;;;11.39;59.89;102493.09;5018980;28;45279;-78
2021/10/14 03:33:22;;;;;;;;;26.25;24.00;;;;;11.34;59.58;102483.22;5018857;28;45217;-79
2021/10/14 03:35:47;;;;;;;;;21.00;19.75;;;;;11.33;59.71;102491.78;5019735;28;45356;-78
2021/10/14 03:38:13;;;;;;;;;22.75;22.25;;;;;11.28;59.74;102494.94;5019377;28;45487;-79
2021/10/14 03:40:39;;;;;;;;;30.50;25.75;;;;;11.25;59.87;102493.84;5019483;28;45342;-77
2021/10/14 03:43:04;;;;;;;;;26.50;25.00;;;;;11.22;60.05;102496.22;5019692;28;45469;-78
2021/10/14 03:45:30;;;;;;;;;21.50;21.50;;;;;11.22;60.19;102501.41;5019642;28;45399;-79
2021/10/14 03:47:56;;;;;;;;;26.75;21.50;;;;;11.25;60.12;102499.03;5019672;28;45322;-79
2021/10/14 03:50:21;;;;;;;;;25.00;21.25;;;;;11.27;60.04;102497.44;5018766;28;45545;-77
2021/10/14 03:52:47;;;;;;;;;22.25;17.75;;;;;11.22;59.77;102499.72;5018863;28;45494;-77
2021/10/14 03:55:12;;;;;;;;;24.75;23.00;;;;;11.19;60.03;102498.59;5018645;28;45264;-78
2021/10/14 03:57:38;;;;;;;;;26.25;21.00;;;;;11.21;59.98;102505.69;5018872;28;45309;-77
2021/10/14 04:00:08;;;;;;;;;28.25;20.50;;;;;11.14;59.98;102503.47;5018468;28;45796;-78
2021/10/14 04:02:34;;;;;;;;;22.50;20.25;;;;;11.10;59.96;102499.75;5017364;28;46083;-78
2021/10/14 04:05:01;;;;;;;;;23.75;22.50;;;;;11.09;60.36;102510.03;5018955;28;45478;-78
2021/10/14 04:07:28;;;;;;;;;28.50;25.25;;;;;11.04;60.61;102501.94;5018672;28;45326;-79
2021/10/14 04:09:53;;;;;;;;;22.50;20.00;;;;;11.01;60.53;102509.47;5018110;28;45282;-79
2021/10/14 04:12:19;;;;;;;;;23.25;21.00;;;;;10.96;60.70;102496.19;5018164;28;45238;-79
2021/10/14 04:14:45;;;;;;;;;24.50;21.00;;;;;11.00;60.85;102515.44;5019227;28;45373;-82
2021/10/14 04:17:10;;;;;;;;;25.75;24.00;;;;;10.97;60.85;102503.19;5019705;28;45232;-79
2021/10/14 04:19:36;;;;;;;;;26.25;24.00;;;;;10.95;61.00;102499.59;5018223;28;46022;-78
2021/10/14 04:22:02;;;;;;;;;27.50;25.00;;;;;11.01;61.07;102506.00;5016813;28;45455;-78
2021/10/14 04:24:29;;;;;;;;;23.75;21.25;;;;;10.84;61.08;102480.69;5018540;28;45353;-78
2021/10/14 04:26:55;;;;;;;;;27.75;25.50;;;;;10.94;61.00;102499.47;5020723;28;45660;-79
2021/10/14 04:29:20;;;;;;;;;26.50;25.75;;;;;10.96;60.67;102503.97;5018684;28;45399;-79
2021/10/14 04:31:46;;;;;;;;;26.50;23.25;;;;;10.96;61.06;102500.50;5018717;28;45454;-79
2021/10/14 04:34:12;;;;;;;;;29.75;26.00;;;;;10.92;61.15;102501.06;5018050;28;45465;-79
2021/10/14 04:36:38;;;;;;;;;16.50;16.00;;;;;10.94;61.39;102510.75;5018539;28;45342;-79
2021/10/14 04:39:06;;;;;;;;;30.25;26.75;;;;;10.95;61.03;102511.66;5019008;28;45326;-79
2021/10/14 04:41:32;;;;;;;;;26.00;23.50;;;;;10.94;61.08;102510.75;5019198;28;45815;-81
2021/10/14 04:43:58;;;;;;;;;26.75;25.00;;;;;10.94;61.10;102509.84;5018021;28;45315;-81
2021/10/14 04:46:23;;;;;;;;;31.25;29.00;;;;;10.92;61.14;102517.50;5033021;28;45501;-79
2021/10/14 04:48:49;;;;;;;;;32.00;26.50;;;;;10.93;61.18;102521.88;5017501;28;45548;-79
2021/10/14 04:51:15;;;;;;;;;29.75;26.25;;;;;10.88;61.10;102510.31;5034544;28;45834;-80
2021/10/14 04:53:40;;;;;;;;;32.25;27.25;;;;;10.83;61.26;102498.72;5019605;28;45330;-80
2021/10/14 04:56:06;;;;;;;;;31.00;26.75;;;;;10.89;61.28;102512.13;5017549;28;45526;-78
2021/10/14 04:58:32;;;;;;;;;29.00;27.75;;;;;10.89;61.73;102508.59;5017565;28;45429;-78
2021/10/14 05:00:58;;;;;;;;;25.75;21.50;;;;;10.96;61.54;102513.47;5017578;28;45951;-79
2021/10/14 05:03:23;;;;;;;;;28.75;26.25;;;;;10.95;61.41;102507.34;5019677;28;45476;-80
2021/10/14 05:05:49;;;;;;;;;26.50;26.25;;;;;10.98;61.49;102512.75;5024600;28;45281;-81
2021/10/14 05:08:15;;;;;;;;;30.50;27.50;;;;;10.97;61.39;102518.75;5025336;28;46356;-81
2021/10/14 05:10:41;;;;;;;;;26.25;24.75;;;;;10.94;61.24;102515.03;5019164;28;45300;-78
2021/10/14 05:13:07;;;;;;;;;32.75;28.00;;;;;10.89;61.33;102503.44;5019134;28;45370;-78
2021/10/14 05:15:33;;;;;;;;;30.25;27.00;;;;;10.92;61.36;102511.44;5019456;28;45451;-87
2021/10/14 05:17:59;;;;;;;;;30.25;27.50;;;;;10.83;61.08;102501.31;5018057;28;46028;-82
2021/10/14 05:20:25;;;;;;;;;34.25;28.75;;;;;10.79;61.35;102495.00;5017742;28;45480;-87
2021/10/14 05:22:51;;;;;;;;;27.00;25.25;;;;;10.78;61.10;102502.69;5018254;28;45443;-89
2021/10/14 05:25:17;;;;;;;;;29.75;24.50;;;;;10.83;61.61;102517.75;5016370;28;45409;-82
2021/10/14 05:27:42;;;;;;;;;22.25;22.00;;;;;10.84;61.54;102513.47;5018016;28;45429;-86
2021/10/14 05:30:08;;;;;;;;;19.50;14.00;;;;;10.85;61.25;102517.88;5017567;28;45491;-87
2021/10/14 05:32:34;;;;;;;;;27.25;23.75;;;;;10.84;61.28;102516.06;5019927;28;45257;-80
2021/10/14 05:35:00;;;;;;;;;22.00;20.25;;;;;10.83;61.55;102517.75;5021996;28;45449;-83
2021/10/14 05:37:29;;;;;;;;;21.75;20.00;;;;;10.77;61.24;102526.78;5021922;28;45369;-86
2021/10/14 05:39:55;;;;;;;;;27.50;25.25;;;;;10.72;61.50;102523.88;5022550;28;45376;-84
2021/10/14 05:42:21;;;;;;;;;24.50;20.25;;;;;10.61;61.65;102504.06;5021062;28;45451;-83
2021/10/14 05:44:47;;;;;;;;;24.50;20.00;;;;;10.64;61.54;102514.63;5019925;28;45445;-80
2021/10/14 05:47:13;;;;;;;;;21.75;19.50;;;;;10.66;61.69;102521.75;5017182;28;45472;-83
2021/10/14 05:49:38;;;;;;;;;22.00;22.00;;;;;10.68;61.70;102522.75;5016742;28;45516;-87
2021/10/14 05:52:05;;;;;;;;;26.50;21.00;;;;;10.58;61.99;102504.75;5020538;28;45328;-82
2021/10/14 05:54:31;;;;;;;;;22.50;21.75;;;;;10.68;61.95;102516.66;5019066;28;45469;-82
2021/10/14 05:56:58;;;;;;;;;25.75;23.50;;;;;10.67;61.95;102512.25;5017806;28;45239;-85
2021/10/14 05:59:25;;;;;;;;;24.50;24.50;;;;;10.59;62.02;102505.63;5018456;28;45383;-88
2021/10/14 06:01:51;;;;;;;;;32.50;31.25;;;;;10.64;61.86;102520.72;5017917;28;45535;-85
2021/10/14 06:04:16;;;;;;;;;27.75;26.25;;;;;10.63;62.07;102516.31;5015323;28;45590;-79
2021/10/14 06:06:42;;;;;;;;;30.25;23.50;;;;;10.60;61.78;102510.03;5017079;28;45904;-84
2021/10/14 06:09:08;;;;;;;;;24.00;21.50;;;;;10.55;62.30;102503.59;5019960;28;45402;-78
2021/10/14 06:11:33;;;;;;;;;22.50;20.00;;;;;10.58;62.16;102509.94;5015879;28;45386;-83
2021/10/14 06:13:59;;;;;;;;;20.25;19.50;;;;;10.60;62.07;102517.81;5017840;28;45440;-88
2021/10/14 06:16:25;;;;;;;;;26.25;24.00;;;;;10.53;62.06;102498.31;5023544;28;46522;-90
2021/10/14 06:18:50;;;;;;;;;26.25;22.75;;;;;10.63;62.07;102508.56;5023660;28;45170;-86
2021/10/14 06:21:16;;;;;;;;;23.25;21.75;;;;;10.66;62.01;102503.59;5019638;28;45235;-78
2021/10/14 06:23:42;;;;;;;;;27.50;22.75;;;;;10.66;61.80;102508.78;5026761;28;45522;-78
2021/10/14 06:26:07;;;;;;;;;25.75;24.50;;;;;10.65;62.18;102509.56;5015631;28;46384;-79
2021/10/14 06:28:33;;;;;;;;;28.00;26.25;;;;;10.63;61.92;102503.38;5016123;28;45219;-79
2021/10/14 06:30:58;;;;;;;;;33.25;26.00;;;;;10.66;61.96;102502.69;5015410;28;45677;-78
2021/10/14 06:33:24;;;;;;;;;31.25;27.25;;;;;10.63;62.18;102502.50;5013598;28;45906;-77
2021/10/14 06:35:50;;;;;;;;;34.00;26.75;;;;;10.67;61.82;102505.41;5015510;28;46517;-77
2021/10/14 06:38:15;;;;;;;;;30.00;25.25;;;;;10.71;61.92;102508.19;5014555;28;45473;-76
2021/10/14 06:40:41;;;;;;;;;30.00;26.00;;;;;10.70;61.94;102517.66;5012378;28;45410;-76
2021/10/14 06:43:06;;;;;;;;;31.25;24.50;;;;;10.68;61.85;102517.56;5010507;28;45657;-77
2021/10/14 06:45:33;;;;;;;;;30.50;24.50;;;;;10.60;62.00;102497.06;5018552;28;45795;-83
2021/10/14 06:47:59;;;;;;;;;30.75;26.25;;;;;10.74;61.88;102506.75;5019720;28;45321;-81
2021/10/14 06:50:24;;;;;;;;;42.75;35.25;;;;;10.79;62.17;102507.06;5019082;28;45252;-83
2021/10/14 06:52:50;;;;;;;;;32.00;30.25;;;;;10.85;61.98;102507.50;5015140;28;45474;-80
2021/10/14 06:55:15;;;;;;;;;29.75;28.00;;;;;10.91;61.82;102512.22;5016520;28;46248;-80
2021/10/14 06:57:41;;;;;;;;;29.25;27.50;;;;;10.88;61.59;102502.53;5019038;28;45235;-80
2021/10/14 07:00:08;;;;;;;;;36.50;30.50;;;;;10.88;61.98;102505.13;5018753;28;45349;-80
2021/10/14 07:02:34;;;;;;;;;31.50;28.50;;;;;10.93;61.46;102514.13;5034714;28;45464;-79
2021/10/14 07:05:00;;;;;;;;;32.00;26.00;;;;;10.88;61.64;102499.03;5019095;28;46046;-79
2021/10/14 07:07:25;;;;;;;;;34.00;32.25;;;;;10.90;61.90;102497.47;5018587;28;45410;-79
2021/10/14 07:09:51;;;;;;;;;38.75;32.00;;;;;10.94;61.63;102505.56;5017352;28;45475;-80
2021/10/14 07:12:16;;;;;;;;;35.75;31.25;;;;;10.84;61.90;102480.69;5018947;28;45446;-79
2021/10/14 07:14:43;;;;;;;;;37.50;31.25;;;;;10.96;61.77;102505.69;5017056;28;46068;-79
2021/10/14 07:17:09;;;;;;;;;36.50;29.00;;;;;10.98;61.51;102499.81;5018455;28;45836;-78
2021/10/14 07:19:36;;;;;;;;;35.75;32.25;;;;;10.99;61.74;102500.69;5019277;28;45231;-78
2021/10/14 07:22:04;;;;;;;;;32.50;29.50;;;;;11.01;61.42;102495.63;5018536;28;45447;-79
2021/10/14 07:24:30;;;;;;;;;37.00;31.75;;;;;11.03;61.63;102499.22;5018093;28;46227;-78
2021/10/14 07:26:57;;;;;;;;;35.75;31.25;;;;;11.07;61.44;102499.53;5019133;28;45427;-79
2021/10/14 07:29:23;;;;;;;;;40.50;33.00;;;;;11.11;61.77;102498.09;5016765;28;45485;-80
2021/10/14 07:31:49;;;;;;;;;39.75;34.00;;;;;11.16;61.54;102504.47;5018939;28;45264;-79
2021/10/14 07:34:14;;;;;;;;;41.25;34.25;;;;;11.21;61.36;102497.00;5017754;28;45448;-79
2021/10/14 07:36:40;;;;;;;;;47.50;34.50;;;;;11.15;61.12;102476.75;5019040;28;45909;-81
2021/10/14 07:39:06;;;;;;;;;35.75;33.00;;;;;11.30;61.35;102508.00;5017793;28;45457;-78
2021/10/14 07:41:32;;;;;;;;;39.50;32.75;;;;;11.32;61.25;102502.94;5016583;28;45582;-80
2021/10/14 07:43:57;;;;;;;;;49.75;38.75;;;;;11.15;61.11;102475.06;5019369;28;45561;-79
2021/10/14 07:46:23;;;;;;;;;39.25;33.50;;;;;11.33;61.07;102496.97;5016954;28;45335;-82
2021/10/14 07:48:49;;;;;;;;;45.00;37.75;;;;;11.30;61.27;102490.78;5018406;28;45313;-82
2021/10/14 07:51:14;;;;;;;;;43.50;33.00;;;;;11.40;61.30;102496.59;5017863;28;45425;-81
2021/10/14 07:53:40;;;;;;;;;40.50;34.25;;;;;11.45;61.20;102502.97;5033718;28;45663;-81
2021/10/14 07:56:06;;;;;;;;;42.00;36.25;;;;;11.49;61.02;102507.59;5016632;28;45552;-82
2021/10/14 07:58:32;;;;;;;;;37.25;32.00;;;;;11.52;60.90;102501.72;5018424;28;45415;-81
2021/10/14 08:00:58;;;;;;;;;37.75;33.25;;;;;11.55;60.98;102491.53;5020100;28;45459;-81
2021/10/14 08:03:24;;;;;;;;;39.50;31.00;;;;;11.59;60.90;102498.75;5021803;28;45441;-80
2021/10/14 08:05:50;;;;;;;;;36.00;31.75;;;;;11.63;61.19;102499.84;5018641;28;45326;-79
2021/10/14 08:08:16;;;;;;;;;34.00;30.25;;;;;11.68;60.93;102498.47;5017426;28;45399;-75
2021/10/14 08:10:42;;;;;;;;;38.00;33.75;;;;;11.70;60.66;102502.97;5018206;28;45436;-83
2021/10/14 08:13:16;;;;;;;;;46.50;34.50;;;;;11.73;60.66;102495.38;5017562;28;46355;-84
2021/10/14 08:15:49;;;;;;;;;34.00;32.75;;;;;11.68;60.99;102481.22;5015234;28;45246;-81
2021/10/14 08:18:15;;;;;;;;;48.00;34.25;;;;;11.79;60.58;102489.69;5017373;28;45379;-80
2021/10/14 08:20:41;;;;;;;;;33.25;30.25;;;;;11.84;60.52;102490.00;5012693;28;45334;-81
2021/10/14 08:23:07;;;;;;;;;40.50;34.25;;;;;11.86;60.62;102493.59;5017229;28;45443;-81
2021/10/14 08:25:33;;;;;;;;;40.50;34.25;;;;;11.91;59.89;102495.72;5033153;28;45782;-82
2021/10/14 08:27:59;;;;;;;;;47.25;35.00;;;;;11.89;60.39;102483.44;5017578;28;45501;-83
2021/10/14 08:30:25;;;;;;;;;39.75;34.75;;;;;12.01;60.42;102489.47;5017848;28;45726;-86
2021/10/14 08:32:52;;;;;;;;;47.00;36.50;;;;;11.95;60.22;102475.16;5016946;28;47496;-85
2021/10/14 08:35:18;;;;;;;;;42.00;35.25;;;;;12.07;60.35;102489.00;5017563;28;45496;-84
2021/10/14 08:37:44;;;;;;;;;42.25;34.25;;;;;12.13;60.24;102480.69;5013219;28;45275;-84
2021/10/14 08:40:11;;;;;;;;;41.00;35.75;;;;;12.07;60.04;102469.09;5016770;28;45200;-85
2021/10/14 08:42:39;;;;;;;;;55.00;42.25;;;;;12.13;60.23;102465.13;5017634;28;45413;-86
2021/10/14 08:45:08;;;;;;;;;53.00;41.50;;;;;12.02;60.09;102435.84;5019958;28;45431;-85
2021/10/14 08:47:36;;;;;;;;;45.75;36.00;;;;;12.25;60.18;102472.78;5027771;28;45285;-85
2021/10/14 08:50:04;;;;;;;;;38.00;34.25;;;;;12.31;59.92;102475.81;5025107;28;45161;-86
2021/10/14 08:52:29;;;;;;;;;42.25;35.00;;;;;12.25;59.79;102457.22;5019521;28;46054;-85
2021/10/14 08:54:56;;;;;;;;;41.75;36.00;;;;;12.33;59.83;102467.31;5019709;28;45352;-86
2021/10/14 08:57:22;;;;;;;;;44.75;36.25;;;;;12.35;59.42;102465.72;5017869;28;45515;-86
2021/10/14 08:59:48;;;;;;;;;40.50;32.25;;;;;12.25;59.51;102441.63;5019675;28;45461;-84
2021/10/14 09:02:18;;;;;;;;;39.75;33.50;;;;;12.44;59.24;102467.09;5024268;28;47944;-83
2021/10/14 09:04:52;;;;;;;;;35.00;33.25;;;;;12.59;59.23;102474.97;5019148;28;45819;-83
2021/10/14 09:07:20;;;;;;;;;39.25;32.00;;;;;12.60;59.17;102477.66;5016428;28;45179;-83
2021/10/14 09:09:47;;;;;;;;;35.00;29.25;;;;;12.67;59.19;102476.34;5017565;28;45522;-83
2021/10/14 09:12:16;;;;;;;;;37.50;31.50;;;;;12.70;59.00;102480.03;5032804;28;47158;-87
2021/10/14 09:15:03;;;;;;;;;37.25;33.75;;;;;12.70;59.32;102466.16;5017693;28;46038;-87
2021/10/14 09:17:38;;;;;;;;;34.50;32.25;;;;;12.77;59.18;102473.50;5016529;28;45606;-86
2021/10/14 09:20:26;;;;;;;;;34.50;32.50;;;;;12.81;58.81;102470.31;5018323;28;45231;-86
2021/10/14 09:23:21;;;;;;;;;38.00;33.00;;;;;12.84;59.17;102467.00;5032478;28;48073;-85
2021/10/14 09:25:52;;;;;;;;;40.50;34.75;;;;;12.82;59.25;102458.19;5033752;28;45932;-84
2021/10/14 09:28:27;;;;;;;;;43.25;36.00;;;;;12.82;58.79;102445.22;5017751;28;45275;-85
2021/10/14 09:31:06;;;;;;;;;35.25;30.75;;;;;12.94;58.77;102461.56;5039038;28;45263;-87
2021/10/14 09:33:47;;;;;;;;;36.00;32.75;;;;;12.97;58.67;102455.66;5040915;28;46843;-88
2021/10/14 09:36:28;;;;;;;;;32.75;28.75;;;;;12.95;58.55;102455.56;5024394;28;45405;-87
2021/10/14 09:39:06;;;;;;;;;32.50;28.25;;;;;13.06;58.14;102452.72;5001127;28;45607;-85
2021/10/14 09:41:38;;;;;;;;;32.00;28.75;;;;;12.97;58.12;102422.75;4998673;28;45195;-85
2021/10/14 09:44:08;;;;;;;;;28.50;26.50;;;;;12.96;57.58;102420.97;5019330;28;46461;-86
2021/10/14 09:46:42;;;;;;;;;22.00;18.50;;;;;13.07;57.91;102433.72;5020199;28;45431;-86
2021/10/14 09:49:19;;;;;;;;;28.00;25.75;;;;;13.21;57.43;102444.94;5023116;28;45358;-83
2021/10/14 09:51:46;;;;;;;;;25.25;23.25;;;;;13.25;57.55;102445.22;5016530;28;45405;-84
2021/10/14 09:54:12;;;;;;;;;23.25;22.25;;;;;13.29;57.24;102438.50;5016964;28;45507;-85
2021/10/14 09:56:38;;;;;;;;;23.00;23.00;;;;;13.26;57.25;102428.81;5019615;28;45850;-83
2021/10/14 09:59:04;;;;;;;;;18.50;12.50;;;;;13.28;56.50;102418.53;5019997;28;45382;-79
2021/10/14 10:01:36;;;;;;;;;9.00;9.00;;;;;13.42;55.86;102432.38;5019534;28;45367;-79
2021/10/14 10:04:03;;;;;;;;;7.75;7.00;;;;;13.51;55.89;102427.72;5021074;28;46546;-82
2021/10/14 10:06:31;;;;;;;;;9.25;8.50;;;;;13.58;55.66;102428.97;5018575;28;45327;-83
2021/10/14 10:09:19;;;;;;;;;10.75;7.75;;;;;13.66;55.51;102427.72;5017626;28;45335;-86
2021/10/14 10:11:51;;;;;;;;;8.00;7.25;;;;;13.73;55.64;102424.63;5017354;28;45355;-81
2021/10/14 10:14:24;;;;;;;;;12.00;8.00;;;;;13.78;55.64;102412.81;5014974;28;47073;-81
2021/10/14 10:16:55;;;;;;;;;11.00;10.75;;;;;13.70;55.22;102397.53;5020651;28;45691;-76
2021/10/14 10:19:42;;;;;;;;;6.75;5.75;;;;;13.76;54.94;102405.72;5016089;28;45327;-83
2021/10/14 10:22:10;;;;;;;;;5.50;5.00;;;;;13.86;54.46;102413.25;5019613;28;45329;-80
2021/10/14 10:24:35;;;;;;;;;6.25;6.25;;;;;13.89;54.75;102405.59;5014189;28;47121;-79
2021/10/14 10:27:06;;;;;;;;;7.00;6.00;;;;;13.86;54.36;102386.31;5016733;28;45236;-84
2021/10/14 10:29:37;;;;;;;;;5.75;5.75;;;;;13.92;54.70;102389.28;5017500;28;45398;-80
2021/10/14 10:32:03;;;;;;;;;10.50;9.50;;;;;14.01;54.21;102396.69;5018129;28;45196;-84
2021/10/14 10:37:39;;;;;;;;;8.25;6.25;;;;;14.04;54.59;102387.31;5018254;28;45730;-85
2021/10/14 10:40:23;;;;;;;;;9.00;9.00;;;;;13.93;54.24;102362.38;5018309;28;45423;-86
2021/10/14 10:43:08;;;;;;;;;13.00;9.75;;;;;14.04;53.87;102371.69;5020568;28;45260;-86
2021/10/14 10:45:45;;;;;;;;;12.75;11.00;;;;;14.16;53.16;102386.22;5019684;28;46144;-81
2021/10/14 10:48:12;;;;;;;;;12.00;10.00;;;;;14.18;52.85;102384.59;5018379;28;45785;-79
2021/10/14 10:50:40;;;;;;;;;13.25;11.50;;;;;14.23;52.54;102383.16;5015930;28;45457;-80
2021/10/14 10:53:19;;;;;;;;;13.00;10.50;;;;;14.22;52.00;102374.44;5016036;28;45502;-81
2021/10/14 10:55:59;;;;;;;;;11.75;9.75;;;;;14.24;51.99;102361.50;5015947;28;46180;-83
2021/10/14 10:58:31;;;;;;;;;15.75;12.25;;;;;14.35;51.82;102372.50;5014676;28;46088;-83
2021/10/14 11:00:57;;;;;;;;;14.25;13.25;;;;;14.33;52.16;102359.41;5019122;28;45398;-82
2021/10/14 11:03:25;;;;;;;;;11.00;9.75;;;;;14.42;52.35;102360.72;5016633;28;45359;-83
2021/10/14 11:06:01;;;;;;;;;11.00;9.75;;;;;14.38;52.09;102341.41;5011763;28;47616;-79
2021/10/14 11:08:30;;;;;;;;;14.00;10.75;;;;;14.54;52.06;102363.97;5028288;28;45472;-78
2021/10/14 11:10:59;;;;;;;;;11.50;9.50;;;;;14.61;51.94;102360.00;5017000;28;45303;-79
2021/10/14 11:13:28;;;;;;;;;64.75;48.75;;;;;14.62;51.24;102360.06;5014969;28;46076;-79